This is the latest recevied weather packets stored in our database for station/object DL2AKT-13. If no packets are shown the sender has not sent any weather packets the latest 10 day(s).
| Time | Temp. | Humidity | Pressure | Rain* | Wind** | Luminosity | Snow |
|---|---|---|---|---|---|---|---|
| 1777968931 | 12.78° C | 91% | 1008.7 hPa | 0 mm | - | - | - |
| 1777966229 | 12.78° C | 91% | 1008.6 hPa | 0 mm | - | - | - |
| 1777962626 | 12.22° C | 91% | 1008.6 hPa | 0 mm | - | - | - |
| 1777959924 | 12.22° C | 90% | 1008.9 hPa | 0.25 mm | - | - | - |
| 1777953618 | 11.67° C | 90% | 1009 hPa | 0.25 mm | - | - | - |
| 1777950903 | 12.22° C | 89% | 1009.6 hPa | 0.51 mm | - | - | - |
| 1777946456 | 12.22° C | 88% | 1010 hPa | 0 mm | - | - | - |
| 1777939255 | 12.22° C | 87% | 1010.8 hPa | 0 mm | - | - | - |
| 1777938343 | 12.78° C | 87% | 1010.9 hPa | 0 mm | - | - | - |
| 1777932939 | 12.22° C | 86% | 1011.6 hPa | 0 mm | - | - | - |
| 1777932044 | 12.22° C | 85% | 1011.6 hPa | 0 mm | - | - | - |
| 1777928430 | 12.78° C | 84% | 1011.9 hPa | 0 mm | - | - | - |
| 1777925728 | 13.33° C | 84% | 1011.5 hPa | 0 mm | - | - | - |
| 1777923927 | 13.33° C | 84% | 1011.4 hPa | 0 mm | - | - | - |
| 1777921229 | 13.89° C | 84% | 1011.4 hPa | 0.25 mm | - | - | - |
| 1777908614 | 20.56° C | 56% | 1010.6 hPa | 0 mm | - | - | - |
| 1777904109 | 21.67° C | 50% | 1010.9 hPa | 0 mm | - | - | - |
| 1777902306 | 21.67° C | 49% | 1011.1 hPa | 0 mm | - | - | - |
| 1777900503 | 21.11° C | 52% | 1011.4 hPa | 0 mm | - | - | - |
| 1777896961 | 20.56° C | 55% | 1011.7 hPa | 0 mm | - | - | - |
| 1777889744 | 19.44° C | 58% | 1012.5 hPa | 0 mm | - | - | - |
| 1777886136 | 17.78° C | 59% | 1013 hPa | 0 mm | - | - | - |
| 1777882526 | 16.11° C | 61% | 1012.9 hPa | 0 mm | - | - | - |
| 1777880779 | 15.56° C | 64% | 1012.9 hPa | 0 mm | - | - | - |
| 1777878955 | 15° C | 66% | 1012.6 hPa | 0 mm | - | - | - |
* Rain latest hour (hover to see other rain measurements)
** Current wind speed in m/s (hover to see current wind gust speed)